International Virtual Aviation Organisation

Russian Federation and Kazakhstan MCD

 
UAAT 281300Z 23006MPS 9999 BKN011 OVC020CB M01/M01 Q1037 NOSIG RMK QFE725/0967
QNH:(hPa/inHg/mmHg)1037 / 30.62 / 778
QFE:(hPa/inHg/mmHg)965 / 28.49 / 724
Temperature-1
Dew Point-1
Visibility> 10000
Weather
Cloud CoverBKN (1100);
OVC (2000);
Transition Height1200 m./5900 ft.
Transition LevelFL70
SQUAWK